Архив погоды в Владивостоке

Метеограмма Владивосток
Четверг, 19 Сентября
Время местн. Темп Ветер Видим Явления Облачность нижн/средн/верх Атм. давл. Влжн Точка росы ВНГО R Сост. почвы Tg s
Напр Скр Прв ур.ст ур.м изм
22:00 +13.6° С 7 - 50 км - ясно 746 763 +1.4 33% -2.2° более 2.5 км - - - -
19:00 +16.9° С 7 - 50 км - переменная облачность 744 761 +0.6 33% +0.7° более 2.5 км 0 - - -
16:00 +18° С 6 - 50 км - ясно 744 760 -0.8 22% -3.9° более 2.5 км - - - -
13:00 +16.2° С 6 - 50 км - ясно 745 761 -0.7 27% -2.9° более 2.5 км - - - -
10:00 +12.4° З 7 - 50 км - ясно 745 762 +0.5 43% +0.1° более 2.5 км - - - -
07:00 +11° З,Ю-З 9 14 50 км - переменная облачность 745 762 -0.8 46% -0.1° 1 км 0 Сухая (без трещин) - -
04:00 +10.8° З 4 - более 50 км - ясно 746 763 -1 46% -0.4° более 2.5 км - - - -
01:00 +10.8° С-З 6 - 50 км - ясно 747 764 -0.4 42% -1.6° более 2.5 км - - - -
Среда, 18 Сентября
Время местн. Темп Ветер Видим Явления Облачность нижн/средн/верх Атм. давл. Влжн Точка росы ВНГО R Сост. почвы Tg s
Напр Скр Прв ур.ст ур.м изм
22:00 +11.6° С-З 5 - 50 км - ясно 747 764 +1.5 36% -2.9° более 2.5 км - - - -
19:00 +12.8° С,С-З 9 14 50 км - переменная облачность 746 762 +1 31% -3.7° 1 км 0 - - -
16:00 +13.8° С 10 16 50 км - переменная облачность 745 761 0 27% -4.8° 1 км - - - -
13:00 +13.1° С 12 17 50 км - переменная облачность 745 761 +0.3 32% -3.1° 1 км - - - -
10:00 +12.7° С 9 14 50 км небо без изменений {ливневые осадки} переменная облачность 744 761 +1.5 44% +0.9° 1.5 км - - - -
07:00 +12.9° С,С-З 9 14 50 км небо без изменений {дождь} переменная облачность 743 760 +2 61% +5.6° 1 км 0 Влажная (без луж) - -
04:00 +16.5° Ю 7 10 50 км - преимущественно облачно 741 757 -1.7 85% +14° 1 км - - - -
01:00 +15.5° Ю 9 11 более 50 км - облачно с прояснениями 742 759 -1.2 77% +11.5° 1 км - - - -
Вторник, 17 Сентября
Время местн. Темп Ветер Видим Явления Облачность нижн/средн/верх Атм. давл. Влжн Точка росы ВНГО R Сост. почвы Tg s
Напр Скр Прв ур.ст ур.м изм
22:00 +14° Ю,Ю-З 5 - 50 км - переменная облачность 744 760 -0.5 76% +9.9° 1 км - - - -
19:00 +14.9° Ю,Ю-З 6 - 50 км - переменная облачность 744 761 -0.7 59% +7° 1 км 0 - - -
16:00 +17.9° З 2 - 50 км - переменная облачность 745 761 -1.6 39% +3.6° 1 км - - - -
13:00 +15.7° С 4 - 50 км - незначительная облачность 746 763 -0.9 43% +3.1° 1 км - - - -
10:00 +11.8° С 5 - 50 км - ясно 747 764 +0.3 53% +2.6° более 2.5 км - - - -
07:00 +8.9° С 5 - 50 км - ясно 747 764 +0.3 72% +4.1° более 2.5 км 0 Влажная (без луж) - -
04:00 +10.8° С 6 - 50 км - ясно 747 764 +0.8 71% +5.8° более 2.5 км - - - -
01:00 +13° С 5 - более 50 км - ясно 746 763 +1.1 80% +9.7° более 2.5 км - - - -
Понедельник, 16 Сентября
Время местн. Темп Ветер Видим Явления Облачность нижн/средн/верх Атм. давл. Влжн Точка росы ВНГО R Сост. почвы Tg s
Напр Скр Прв ур.ст ур.м изм
22:00 +15.1° С 4 - 50 км - ясно 745 761 +1.7 82% +12° более 2.5 км - - - -
19:00 +20.2° С 6 13 более 50 км - незначительная облачность 743 759 +0.7 49% +9.1° 1 км 0 - - -